sensor_id;sensor_type;location;lat;lon;timestamp;pressure;altitude;pressure_sealevel;temperature;humidity
71964;BME280;59834;52.124;5.422;2023-04-05T00:01:52;102614.06;;;2.99;76.12
71964;BME280;59834;52.124;5.422;2023-04-05T00:04:19;102613.22;;;2.92;77.80
71964;BME280;59834;52.124;5.422;2023-04-05T00:06:47;102613.22;;;2.88;77.54
71964;BME280;59834;52.124;5.422;2023-04-05T00:09:19;102617.53;;;2.81;78.05
71964;BME280;59834;52.124;5.422;2023-04-05T00:11:48;102615.00;;;2.73;78.90
71964;BME280;59834;52.124;5.422;2023-04-05T00:14:15;102613.28;;;2.63;79.99
71964;BME280;59834;52.124;5.422;2023-04-05T00:16:41;102613.28;;;2.57;80.54
71964;BME280;59834;52.124;5.422;2023-04-05T00:19:08;102606.41;;;2.53;80.67
71964;BME280;59834;52.124;5.422;2023-04-05T00:21:38;102609.00;;;2.47;81.48
71964;BME280;59834;52.124;5.422;2023-04-05T00:24:05;102605.56;;;2.43;81.81
71964;BME280;59834;52.124;5.422;2023-04-05T00:26:32;102605.59;;;2.39;82.08
71964;BME280;59834;52.124;5.422;2023-04-05T00:28:59;102608.16;;;2.32;82.25
71964;BME280;59834;52.124;5.422;2023-04-05T00:31:25;102609.03;;;2.28;82.55
71964;BME280;59834;52.124;5.422;2023-04-05T00:33:52;102603.00;;;2.26;82.48
71964;BME280;59834;52.124;5.422;2023-04-05T00:36:20;102606.47;;;2.22;82.90
71964;BME280;59834;52.124;5.422;2023-04-05T00:38:47;102602.16;;;2.18;84.05
71964;BME280;59834;52.124;5.422;2023-04-05T00:41:15;102603.88;;;2.11;83.50
71964;BME280;59834;52.124;5.422;2023-04-05T00:43:41;102596.13;;;2.07;83.69
71964;BME280;59834;52.124;5.422;2023-04-05T00:46:08;102590.97;;;2.02;84.99
71964;BME280;59834;52.124;5.422;2023-04-05T00:48:35;102601.28;;;1.98;83.52
71964;BME280;59834;52.124;5.422;2023-04-05T00:51:03;102593.53;;;1.93;84.69
71964;BME280;59834;52.124;5.422;2023-04-05T00:53:30;102590.97;;;1.88;84.48
71964;BME280;59834;52.124;5.422;2023-04-05T00:55:57;102594.38;;;1.87;83.84
71964;BME280;59834;52.124;5.422;2023-04-05T00:58:23;102591.78;;;1.84;84.67
71964;BME280;59834;52.124;5.422;2023-04-05T01:03:31;102586.63;;;1.77;84.80
71964;BME280;59834;52.124;5.422;2023-04-05T01:06:08;102584.91;;;1.74;85.36
71964;BME280;59834;52.124;5.422;2023-04-05T01:08:51;102580.59;;;1.70;84.80
71964;BME280;59834;52.124;5.422;2023-04-05T01:11:22;102584.03;;;1.66;84.74
71964;BME280;59834;52.124;5.422;2023-04-05T01:13:49;102587.47;;;1.62;85.48
71964;BME280;59834;52.124;5.422;2023-04-05T01:16:15;102582.31;;;1.59;85.24
71964;BME280;59834;52.124;5.422;2023-04-05T01:18:42;102573.69;;;1.57;84.56
71964;BME280;59834;52.124;5.422;2023-04-05T01:27:26;102574.53;;;1.39;85.16
71964;BME280;59834;52.124;5.422;2023-04-05T01:30:21;102565.91;;;1.34;86.43
71964;BME280;59834;52.124;5.422;2023-04-05T01:33:13;102577.06;;;1.27;86.27
71964;BME280;59834;52.124;5.422;2023-04-05T01:38:20;102565.00;;;1.15;86.37
71964;BME280;59834;52.124;5.422;2023-04-05T01:40:48;102563.28;;;1.11;86.53
71964;BME280;59834;52.124;5.422;2023-04-05T01:43:16;102561.50;;;1.04;87.28
71964;BME280;59834;52.124;5.422;2023-04-05T01:45:44;102565.81;;;0.99;86.39
71964;BME280;59834;52.124;5.422;2023-04-05T01:48:11;102571.81;;;0.98;86.85
71964;BME280;59834;52.124;5.422;2023-04-05T01:50:38;102570.06;;;0.93;87.17
71964;BME280;59834;52.124;5.422;2023-04-05T01:53:08;102566.63;;;0.91;86.86
71964;BME280;59834;52.124;5.422;2023-04-05T01:55:36;102568.34;;;0.88;86.87
71964;BME280;59834;52.124;5.422;2023-04-05T01:58:02;102565.75;;;0.86;87.65
71964;BME280;59834;52.124;5.422;2023-04-05T02:00:29;102560.56;;;0.83;86.97
71964;BME280;59834;52.124;5.422;2023-04-05T02:02:55;102551.13;;;0.81;87.61
71964;BME280;59834;52.124;5.422;2023-04-05T02:05:22;102547.69;;;0.77;87.22
71964;BME280;59834;52.124;5.422;2023-04-05T02:07:48;102542.50;;;0.74;87.43
71964;BME280;59834;52.124;5.422;2023-04-05T02:10:17;102544.19;;;0.74;86.94
71964;BME280;59834;52.124;5.422;2023-04-05T02:12:43;102544.19;;;0.69;87.81
71964;BME280;59834;52.124;5.422;2023-04-05T02:15:10;102547.63;;;0.68;87.66
71964;BME280;59834;52.124;5.422;2023-04-05T02:17:37;102539.84;;;0.63;88.25
71964;BME280;59834;52.124;5.422;2023-04-05T02:20:12;102545.00;;;0.60;88.25
71964;BME280;59834;52.124;5.422;2023-04-05T02:22:40;102544.13;;;0.60;88.17
71964;BME280;59834;52.124;5.422;2023-04-05T02:25:11;102539.84;;;0.59;88.35
71964;BME280;59834;52.124;5.422;2023-04-05T02:27:38;102535.53;;;0.55;87.87
71964;BME280;59834;52.124;5.422;2023-04-05T02:30:05;102537.25;;;0.54;88.49
71964;BME280;59834;52.124;5.422;2023-04-05T02:32:32;102531.22;;;0.51;87.75
71964;BME280;59834;52.124;5.422;2023-04-05T02:34:58;102526.06;;;0.47;88.47
71964;BME280;59834;52.124;5.422;2023-04-05T02:37:25;102530.31;;;0.42;88.18
71964;BME280;59834;52.124;5.422;2023-04-05T02:39:52;102535.44;;;0.42;88.24
71964;BME280;59834;52.124;5.422;2023-04-05T02:42:19;102529.44;;;0.39;88.32
71964;BME280;59834;52.124;5.422;2023-04-05T02:44:46;102534.56;;;0.36;88.52
71964;BME280;59834;52.124;5.422;2023-04-05T02:47:13;102524.22;;;0.33;88.11
71964;BME280;59834;52.124;5.422;2023-04-05T02:49:49;102528.50;;;0.29;88.61
71964;BME280;59834;52.124;5.422;2023-04-05T02:52:16;102529.34;;;0.23;88.26
71964;BME280;59834;52.124;5.422;2023-04-05T02:54:42;102525.00;;;0.19;88.90
71964;BME280;59834;52.124;5.422;2023-04-05T02:57:10;102519.00;;;0.19;89.28
71964;BME280;59834;52.124;5.422;2023-04-05T02:59:37;102513.81;;;0.16;88.81
71964;BME280;59834;52.124;5.422;2023-04-05T03:02:05;102513.84;;;0.14;89.44
71964;BME280;59834;52.124;5.422;2023-04-05T03:04:32;102514.66;;;0.12;88.82
71964;BME280;59834;52.124;5.422;2023-04-05T03:07:00;102510.34;;;0.08;88.61
71964;BME280;59834;52.124;5.422;2023-04-05T03:09:31;102516.34;;;0.07;89.55
71964;BME280;59834;52.124;5.422;2023-04-05T03:12:04;102511.19;;;0.07;89.37
71964;BME280;59834;52.124;5.422;2023-04-05T03:14:31;102506.91;;;0.06;89.29
71964;BME280;59834;52.124;5.422;2023-04-05T03:16:57;102510.31;;;0.03;89.20
71964;BME280;59834;52.124;5.422;2023-04-05T03:19:24;102506.00;;;-0.03;89.40
71964;BME280;59834;52.124;5.422;2023-04-05T03:21:52;102500.78;;;-0.09;89.19
71964;BME280;59834;52.124;5.422;2023-04-05T03:24:18;102499.88;;;-0.18;88.47
71964;BME280;59834;52.124;5.422;2023-04-05T03:26:46;102498.13;;;-0.21;88.94
71964;BME280;59834;52.124;5.422;2023-04-05T03:29:14;102500.69;;;-0.21;88.82
71964;BME280;59834;52.124;5.422;2023-04-05T03:31:40;102505.78;;;-0.27;88.49
71964;BME280;59834;52.124;5.422;2023-04-05T03:34:07;102505.78;;;-0.29;89.20
71964;BME280;59834;52.124;5.422;2023-04-05T03:36:34;102497.22;;;-0.25;89.88
71964;BME280;59834;52.124;5.422;2023-04-05T03:39:11;102494.66;;;-0.26;89.85
71964;BME280;59834;52.124;5.422;2023-04-05T03:41:39;102494.69;;;-0.23;89.92
71964;BME280;59834;52.124;5.422;2023-04-05T03:44:07;102491.22;;;-0.24;90.48
71964;BME280;59834;52.124;5.422;2023-04-05T03:46:34;102492.09;;;-0.26;89.92
71964;BME280;59834;52.124;5.422;2023-04-05T03:49:03;102492.94;;;-0.24;89.71
71964;BME280;59834;52.124;5.422;2023-04-05T03:51:29;102494.69;;;-0.21;89.37
71964;BME280;59834;52.124;5.422;2023-04-05T03:53:57;102491.25;;;-0.22;89.84
71964;BME280;59834;52.124;5.422;2023-04-05T03:56:23;102496.38;;;-0.24;90.06
71964;BME280;59834;52.124;5.422;2023-04-05T03:58:51;102503.22;;;-0.29;89.45
71964;BME280;59834;52.124;5.422;2023-04-05T04:01:18;102493.75;;;-0.31;88.76
71964;BME280;59834;52.124;5.422;2023-04-05T04:03:45;102498.03;;;-0.32;88.92
71964;BME280;59834;52.124;5.422;2023-04-05T04:06:11;102493.75;;;-0.33;88.80
71964;BME280;59834;52.124;5.422;2023-04-05T04:08:39;102492.03;;;-0.31;89.46
71964;BME280;59834;52.124;5.422;2023-04-05T04:11:05;102487.75;;;-0.33;89.78
71964;BME280;59834;52.124;5.422;2023-04-05T04:13:32;102484.25;;;-0.38;89.05
71964;BME280;59834;52.124;5.422;2023-04-05T04:15:58;102485.97;;;-0.37;89.82
71964;BME280;59834;52.124;5.422;2023-04-05T04:18:25;102487.69;;;-0.38;90.34
71964;BME280;59834;52.124;5.422;2023-04-05T04:20:52;102490.25;;;-0.42;90.38
71964;BME280;59834;52.124;5.422;2023-04-05T04:23:18;102491.09;;;-0.43;90.64
71964;BME280;59834;52.124;5.422;2023-04-05T04:25:49;102487.63;;;-0.45;90.74
71964;BME280;59834;52.124;5.422;2023-04-05T04:28:15;102486.75;;;-0.48;90.43
71964;BME280;59834;52.124;5.422;2023-04-05T04:30:44;102487.59;;;-0.52;89.44
71964;BME280;59834;52.124;5.422;2023-04-05T04:33:12;102483.25;;;-0.54;89.28
71964;BME280;59834;52.124;5.422;2023-04-05T04:35:38;102484.13;;;-0.55;89.41
71964;BME280;59834;52.124;5.422;2023-04-05T04:38:06;102491.84;;;-0.57;90.15
71964;BME280;59834;52.124;5.422;2023-04-05T04:40:35;102488.38;;;-0.59;89.58
71964;BME280;59834;52.124;5.422;2023-04-05T04:43:10;102494.34;;;-0.63;88.45
71964;BME280;59834;52.124;5.422;2023-04-05T04:45:43;102484.91;;;-0.61;89.66
71964;BME280;59834;52.124;5.422;2023-04-05T04:48:14;102489.22;;;-0.58;90.19
71964;BME280;59834;52.124;5.422;2023-04-05T04:50:42;102485.81;;;-0.60;90.21
71964;BME280;59834;52.124;5.422;2023-04-05T04:53:10;102488.38;;;-0.60;90.33
71964;BME280;59834;52.124;5.422;2023-04-05T04:55:37;102484.91;;;-0.62;89.63
71964;BME280;59834;52.124;5.422;2023-04-05T04:58:04;102488.34;;;-0.62;89.70
71964;BME280;59834;52.124;5.422;2023-04-05T05:00:38;102484.06;;;-0.63;88.72
71964;BME280;59834;52.124;5.422;2023-04-05T05:03:06;102484.06;;;-0.61;89.45
71964;BME280;59834;52.124;5.422;2023-04-05T05:05:33;102484.09;;;-0.60;89.43
71964;BME280;59834;52.124;5.422;2023-04-05T05:08:00;102480.66;;;-0.60;88.31
71964;BME280;59834;52.124;5.422;2023-04-05T05:10:27;102478.13;;;-0.56;88.49
71964;BME280;59834;52.124;5.422;2023-04-05T05:12:53;102488.44;;;-0.51;89.13
71964;BME280;59834;52.124;5.422;2023-04-05T05:15:20;102487.59;;;-0.52;88.78
71964;BME280;59834;52.124;5.422;2023-04-05T05:17:46;102479.88;;;-0.49;89.96
71964;BME280;59834;52.124;5.422;2023-04-05T05:20:20;102480.75;;;-0.48;89.25
71964;BME280;59834;52.124;5.422;2023-04-05T05:22:47;102472.19;;;-0.47;89.48
71964;BME280;59834;52.124;5.422;2023-04-05T05:25:15;102473.09;;;-0.43;88.98
71964;BME280;59834;52.124;5.422;2023-04-05T05:27:42;102474.84;;;-0.39;88.38
71964;BME280;59834;52.124;5.422;2023-04-05T05:30:09;102474.00;;;-0.37;88.00
71964;BME280;59834;52.124;5.422;2023-04-05T05:32:36;102477.47;;;-0.33;88.69
71964;BME280;59834;52.124;5.422;2023-04-05T05:35:03;102464.59;;;-0.33;88.41
71964;BME280;59834;52.124;5.422;2023-04-05T05:37:31;102473.22;;;-0.25;87.80
71964;BME280;59834;52.124;5.422;2023-04-05T05:39:58;102467.28;;;-0.16;87.85
71964;BME280;59834;52.124;5.422;2023-04-05T05:42:25;102472.47;;;-0.09;88.28
71964;BME280;59834;52.124;5.422;2023-04-05T05:44:52;102471.66;;;-0.05;87.09
71964;BME280;59834;52.124;5.422;2023-04-05T05:47:19;102477.69;;;0.01;88.17
71964;BME280;59834;52.124;5.422;2023-04-05T05:49:46;102475.13;;;0.07;86.97
71964;BME280;59834;52.124;5.422;2023-04-05T05:52:15;102478.63;;;0.15;86.97
71964;BME280;59834;52.124;5.422;2023-04-05T05:54:41;102470.94;;;0.22;86.66
71964;BME280;59834;52.124;5.422;2023-04-05T05:57:07;102473.56;;;0.30;86.85
71964;BME280;59834;52.124;5.422;2023-04-05T05:59:34;102481.59;;;1.02;87.48
71964;BME280;59834;52.124;5.422;2023-04-05T06:02:01;102472.91;;;2.40;85.94
71964;BME280;59834;52.124;5.422;2023-04-05T06:04:27;102473.25;;;3.40;81.50
71964;BME280;59834;52.124;5.422;2023-04-05T06:06:54;102464.06;;;3.99;77.24
71964;BME280;59834;52.124;5.422;2023-04-05T06:09:22;102468.00;;;4.37;74.59
71964;BME280;59834;52.124;5.422;2023-04-05T06:11:52;102462.38;;;4.72;72.88
71964;BME280;59834;52.124;5.422;2023-04-05T06:14:23;102455.97;;;4.97;70.13
71964;BME280;59834;52.124;5.422;2023-04-05T06:16:49;102463.28;;;4.68;68.86
71964;BME280;59834;52.124;5.422;2023-04-05T06:19:16;102467.28;;;4.22;68.83
71964;BME280;59834;52.124;5.422;2023-04-05T06:21:43;102466.66;;;4.00;69.92
71964;BME280;59834;52.124;5.422;2023-04-05T06:24:10;102473.16;;;4.38;69.72
71964;BME280;59834;52.124;5.422;2023-04-05T06:26:37;102471.38;;;4.42;69.16
71964;BME280;59834;52.124;5.422;2023-04-05T06:29:03;102472.94;;;4.55;68.55
71964;BME280;59834;52.124;5.422;2023-04-05T06:31:33;102468.69;;;4.51;68.09
71964;BME280;59834;52.124;5.422;2023-04-05T06:34:01;102472.19;;;4.47;67.70
71964;BME280;59834;52.124;5.422;2023-04-05T06:36:30;102467.47;;;4.78;68.01
71964;BME280;59834;52.124;5.422;2023-04-05T06:38:57;102460.75;;;5.27;66.22
71964;BME280;59834;52.124;5.422;2023-04-05T06:41:24;102464.69;;;4.92;65.38
71964;BME280;59834;52.124;5.422;2023-04-05T06:43:54;102468.41;;;3.98;67.82
71964;BME280;59834;52.124;5.422;2023-04-05T06:46:21;102463.75;;;3.37;69.13
71964;BME280;59834;52.124;5.422;2023-04-05T06:48:48;102470.03;;;3.01;70.49
71964;BME280;59834;52.124;5.422;2023-04-05T06:51:15;102470.16;;;2.81;71.43
71964;BME280;59834;52.124;5.422;2023-04-05T06:53:42;102474.47;;;2.74;71.38
71964;BME280;59834;52.124;5.422;2023-04-05T06:56:08;102473.66;;;2.69;72.45
71964;BME280;59834;52.124;5.422;2023-04-05T06:58:35;102476.25;;;2.65;72.64
71964;BME280;59834;52.124;5.422;2023-04-05T07:01:02;102472.81;;;2.66;73.42
71964;BME280;59834;52.124;5.422;2023-04-05T07:03:29;102471.91;;;2.71;73.57
71964;BME280;59834;52.124;5.422;2023-04-05T07:05:57;102471.91;;;2.71;73.52
71964;BME280;59834;52.124;5.422;2023-04-05T07:08:29;102471.91;;;2.74;73.72
71964;BME280;59834;52.124;5.422;2023-04-05T07:10:57;102465.81;;;2.86;74.03
71964;BME280;59834;52.124;5.422;2023-04-05T07:13:24;102464.91;;;2.95;73.44
71964;BME280;59834;52.124;5.422;2023-04-05T07:15:51;102470.03;;;3.01;73.12
71964;BME280;59834;52.124;5.422;2023-04-05T07:18:24;102466.59;;;3.00;74.30
71964;BME280;59834;52.124;5.422;2023-04-05T07:20:51;102460.47;;;3.17;74.12
71964;BME280;59834;52.124;5.422;2023-04-05T07:23:19;102466.44;;;3.26;74.42
71964;BME280;59834;52.124;5.422;2023-04-05T07:25:48;102468.97;;;3.31;74.80
71964;BME280;59834;52.124;5.422;2023-04-05T07:28:14;102463.69;;;3.45;74.62
71964;BME280;59834;52.124;5.422;2023-04-05T07:30:41;102465.41;;;3.49;74.32
71964;BME280;59834;52.124;5.422;2023-04-05T07:33:08;102459.31;;;3.54;75.08
71964;BME280;59834;52.124;5.422;2023-04-05T07:35:34;102462.69;;;3.61;74.39
71964;BME280;59834;52.124;5.422;2023-04-05T07:38:02;102463.47;;;3.71;73.94
71964;BME280;59834;52.124;5.422;2023-04-05T07:40:28;102458.25;;;3.75;74.32
71964;BME280;59834;52.124;5.422;2023-04-05T07:42:55;102463.31;;;3.88;74.12
71964;BME280;59834;52.124;5.422;2023-04-05T07:45:22;102460.66;;;3.97;73.46
71964;BME280;59834;52.124;5.422;2023-04-05T07:47:48;102463.94;;;4.11;73.95
71964;BME280;59834;52.124;5.422;2023-04-05T07:50:15;102460.38;;;4.21;72.54
71964;BME280;59834;52.124;5.422;2023-04-05T07:52:41;102456.78;;;4.35;72.48
71964;BME280;59834;52.124;5.422;2023-04-05T07:55:09;102451.44;;;4.50;70.64
71964;BME280;59834;52.124;5.422;2023-04-05T07:57:36;102450.44;;;4.60;70.61
71964;BME280;59834;52.124;5.422;2023-04-05T08:00:03;102459.78;;;4.73;69.64
71964;BME280;59834;52.124;5.422;2023-04-05T08:02:32;102453.66;;;4.78;69.67
71964;BME280;59834;52.124;5.422;2023-04-05T08:04:59;102448.28;;;4.91;70.18
71964;BME280;59834;52.124;5.422;2023-04-05T08:07:26;102449.94;;;4.95;68.96
71964;BME280;59834;52.124;5.422;2023-04-05T08:09:52;102444.75;;;4.97;68.38
71964;BME280;59834;52.124;5.422;2023-04-05T08:12:22;102445.59;;;4.96;69.01
71964;BME280;59834;52.124;5.422;2023-04-05T08:14:49;102447.25;;;5.03;67.76
71964;BME280;59834;52.124;5.422;2023-04-05T08:17:15;102449.59;;;5.20;68.36
71964;BME280;59834;52.124;5.422;2023-04-05T08:19:43;102451.09;;;5.35;68.55
71964;BME280;59834;52.124;5.422;2023-04-05T08:22:10;102444.94;;;5.39;67.03
71964;BME280;59834;52.124;5.422;2023-04-05T08:24:37;102448.16;;;5.53;68.01
71964;BME280;59834;52.124;5.422;2023-04-05T08:27:03;102450.66;;;5.61;67.53
71964;BME280;59834;52.124;5.422;2023-04-05T08:29:30;102444.47;;;5.66;67.56
71964;BME280;59834;52.124;5.422;2023-04-05T08:31:56;102444.28;;;5.79;67.06
71964;BME280;59834;52.124;5.422;2023-04-05T08:34:24;102445.94;;;5.83;66.89
71964;BME280;59834;52.124;5.422;2023-04-05T08:36:50;102441.44;;;5.94;65.76
71964;BME280;59834;52.124;5.422;2023-04-05T08:39:17;102436.06;;;6.03;64.49
71964;BME280;59834;52.124;5.422;2023-04-05T08:42:10;102429.09;;;6.05;63.92
71964;BME280;59834;52.124;5.422;2023-04-05T08:44:38;102427.19;;;6.13;63.52
71964;BME280;59834;52.124;5.422;2023-04-05T08:47:07;102431.19;;;6.30;62.57
71964;BME280;59834;52.124;5.422;2023-04-05T08:49:34;102421.41;;;6.43;62.67
71964;BME280;59834;52.124;5.422;2023-04-05T08:52:01;102421.81;;;6.65;61.31
71964;BME280;59834;52.124;5.422;2023-04-05T08:54:28;102425.09;;;6.73;60.19
71964;BME280;59834;52.124;5.422;2023-04-05T08:56:56;102426.53;;;6.86;60.60
71964;BME280;59834;52.124;5.422;2023-04-05T08:59:25;102430.19;;;6.79;59.58
71964;BME280;59834;52.124;5.422;2023-04-05T09:01:53;102423.81;;;6.92;58.97
71964;BME280;59834;52.124;5.422;2023-04-05T09:04:21;102420.06;;;7.04;58.51
71964;BME280;59834;52.124;5.422;2023-04-05T09:06:54;102419.00;;;7.13;57.38
71964;BME280;59834;52.124;5.422;2023-04-05T09:09:23;102416.44;;;7.11;58.55
71964;BME280;59834;52.124;5.422;2023-04-05T09:11:50;102425.03;;;7.15;56.17
71964;BME280;59834;52.124;5.422;2023-04-05T09:14:17;102422.19;;;7.24;55.01
71964;BME280;59834;52.124;5.422;2023-04-05T09:16:44;102414.94;;;7.37;55.22
71964;BME280;59834;52.124;5.422;2023-04-05T09:19:11;102419.00;;;7.48;56.05
71964;BME280;59834;52.124;5.422;2023-04-05T09:22:03;102419.47;;;7.63;54.55
71964;BME280;59834;52.124;5.422;2023-04-05T09:24:41;102420.31;;;7.65;53.03
71964;BME280;59834;52.124;5.422;2023-04-05T09:27:09;102421.03;;;7.70;52.22
71964;BME280;59834;52.124;5.422;2023-04-05T09:29:41;102422.56;;;7.77;52.70
71964;BME280;59834;52.124;5.422;2023-04-05T09:32:09;102416.81;;;7.66;51.40
71964;BME280;59834;52.124;5.422;2023-04-05T09:34:36;102417.22;;;7.83;51.67
71964;BME280;59834;52.124;5.422;2023-04-05T09:37:13;102414.91;;;8.03;52.22
71964;BME280;59834;52.124;5.422;2023-04-05T09:39:40;102408.53;;;8.14;51.28
71964;BME280;59834;52.124;5.422;2023-04-05T09:42:08;102403.72;;;8.00;50.89
71964;BME280;59834;52.124;5.422;2023-04-05T09:44:54;102399.03;;;8.11;50.32
71964;BME280;59834;52.124;5.422;2023-04-05T09:47:24;102405.44;;;8.31;50.52
71964;BME280;59834;52.124;5.422;2023-04-05T09:49:51;102398.78;;;8.20;49.24
71964;BME280;59834;52.124;5.422;2023-04-05T09:52:23;102411.28;;;8.09;50.10
71964;BME280;59834;52.124;5.422;2023-04-05T09:54:52;102402.84;;;7.99;51.22
71964;BME280;59834;52.124;5.422;2023-04-05T09:57:21;102403.41;;;8.11;50.34
71964;BME280;59834;52.124;5.422;2023-04-05T09:59:48;102402.41;;;8.15;50.12
71964;BME280;59834;52.124;5.422;2023-04-05T10:02:14;102392.56;;;8.26;50.19
71964;BME280;59834;52.124;5.422;2023-04-05T10:04:43;102391.63;;;8.27;48.72
71964;BME280;59834;52.124;5.422;2023-04-05T10:07:11;102394.72;;;8.41;48.16
71964;BME280;59834;52.124;5.422;2023-04-05T10:09:40;102390.06;;;8.53;46.75
71964;BME280;59834;52.124;5.422;2023-04-05T10:12:07;102385.34;;;8.34;46.84
71964;BME280;59834;52.124;5.422;2023-04-05T10:14:35;102379.06;;;8.41;47.83
71964;BME280;59834;52.124;5.422;2023-04-05T10:17:15;102380.72;;;8.45;47.91
71964;BME280;59834;52.124;5.422;2023-04-05T10:20:11;102378.25;;;8.69;47.41
71964;BME280;59834;52.124;5.422;2023-04-05T10:22:47;102373.59;;;8.79;47.04
71964;BME280;59834;52.124;5.422;2023-04-05T10:28:32;102361.88;;;8.64;47.09
71964;BME280;59834;52.124;5.422;2023-04-05T10:31:27;102362.59;;;8.69;47.39
71964;BME280;59834;52.124;5.422;2023-04-05T10:34:41;102363.50;;;8.94;48.31
71964;BME280;59834;52.124;5.422;2023-04-05T10:37:22;102366.13;;;9.21;46.43
71964;BME280;59834;52.124;5.422;2023-04-05T10:39:53;102356.19;;;9.06;44.97
71964;BME280;59834;52.124;5.422;2023-04-05T10:42:39;102350.88;;;9.09;45.49
71964;BME280;59834;52.124;5.422;2023-04-05T10:45:07;102354.16;;;9.14;46.35
71964;BME280;59834;52.124;5.422;2023-04-05T10:47:49;102349.78;;;9.14;45.25
71964;BME280;59834;52.124;5.422;2023-04-05T10:50:21;102349.03;;;9.37;45.96
71964;BME280;59834;52.124;5.422;2023-04-05T10:52:50;102344.38;;;9.45;44.55
71964;BME280;59834;52.124;5.422;2023-04-05T10:55:18;102344.09;;;9.28;44.46
71964;BME280;59834;52.124;5.422;2023-04-05T10:57:46;102345.81;;;9.29;45.10
71964;BME280;59834;52.124;5.422;2023-04-05T11:00:14;102336.16;;;9.31;44.71
71964;BME280;59834;52.124;5.422;2023-04-05T11:02:42;102335.00;;;9.40;44.85
71964;BME280;59834;52.124;5.422;2023-04-05T11:05:31;102333.38;;;9.61;44.68
71964;BME280;59834;52.124;5.422;2023-04-05T11:08:03;102325.44;;;9.64;43.89
71964;BME280;59834;52.124;5.422;2023-04-05T11:10:33;102323.31;;;9.50;44.46
71964;BME280;59834;52.124;5.422;2023-04-05T11:23:23;102318.13;;;9.97;43.54
71964;BME280;59834;52.124;5.422;2023-04-05T11:26:08;102311.97;;;9.98;43.53
71964;BME280;59834;52.124;5.422;2023-04-05T11:28:37;102311.56;;;10.09;44.25
71964;BME280;59834;52.124;5.422;2023-04-05T11:31:18;102303.31;;;10.20;43.09
71964;BME280;59834;52.124;5.422;2023-04-05T11:34:04;102311.00;;;10.01;43.96
71964;BME280;59834;52.124;5.422;2023-04-05T11:36:46;102311.63;;;10.07;43.68
71964;BME280;59834;52.124;5.422;2023-04-05T11:41:53;102298.75;;;10.03;42.27
71964;BME280;59834;52.124;5.422;2023-04-05T11:44:21;102294.63;;;9.96;42.99
71964;BME280;59834;52.124;5.422;2023-04-05T11:46:49;102293.72;;;9.97;41.57
71964;BME280;59834;52.124;5.422;2023-04-05T11:49:16;102287.97;;;10.10;41.50
71964;BME280;59834;52.124;5.422;2023-04-05T11:51:42;102286.28;;;10.33;40.72
71964;BME280;59834;52.124;5.422;2023-04-05T11:54:09;102282.25;;;10.23;40.93
71964;BME280;59834;52.124;5.422;2023-04-05T11:56:36;102276.78;;;10.07;40.82
71964;BME280;59834;52.124;5.422;2023-04-05T11:59:02;102280.53;;;10.00;40.46
71964;BME280;59834;52.124;5.422;2023-04-05T12:01:29;102278.06;;;10.19;41.14
71964;BME280;59834;52.124;5.422;2023-04-05T12:03:56;102265.69;;;10.22;40.73
71964;BME280;59834;52.124;5.422;2023-04-05T12:06:25;102260.03;;;10.11;41.04
71964;BME280;59834;52.124;5.422;2023-04-05T12:08:51;102266.31;;;10.30;41.63
71964;BME280;59834;52.124;5.422;2023-04-05T12:11:28;102267.28;;;10.28;40.59
71964;BME280;59834;52.124;5.422;2023-04-05T12:13:59;102268.69;;;10.13;41.52
71964;BME280;59834;52.124;5.422;2023-04-05T12:16:29;102264.31;;;10.13;41.73
71964;BME280;59834;52.124;5.422;2023-04-05T12:18:57;102251.97;;;10.17;41.50
71964;BME280;59834;52.124;5.422;2023-04-05T12:21:25;102257.72;;;10.25;42.05
71964;BME280;59834;52.124;5.422;2023-04-05T12:23:53;102260.75;;;10.60;42.25
71964;BME280;59834;52.124;5.422;2023-04-05T12:26:20;102250.19;;;10.83;40.66
71964;BME280;59834;52.124;5.422;2023-04-05T12:28:58;102247.56;;;10.83;40.40
71964;BME280;59834;52.124;5.422;2023-04-05T12:31:40;102251.31;;;10.76;40.97
71964;BME280;59834;52.124;5.422;2023-04-05T12:34:07;102250.31;;;10.80;39.75
71964;BME280;59834;52.124;5.422;2023-04-05T12:36:34;102252.03;;;10.59;39.43
71964;BME280;59834;52.124;5.422;2023-04-05T12:39:08;102245.09;;;10.58;40.12
71964;BME280;59834;52.124;5.422;2023-04-05T12:41:37;102244.53;;;10.93;39.98
71964;BME280;59834;52.124;5.422;2023-04-05T12:44:26;102242.97;;;10.89;39.61
71964;BME280;59834;52.124;5.422;2023-04-05T12:46:59;102240.94;;;10.75;39.14
71964;BME280;59834;52.124;5.422;2023-04-05T12:49:27;102236.00;;;10.67;38.65
71964;BME280;59834;52.124;5.422;2023-04-05T12:51:59;102232.69;;;10.84;39.56
71964;BME280;59834;52.124;5.422;2023-04-05T12:54:28;102222.13;;;11.06;38.56
71964;BME280;59834;52.124;5.422;2023-04-05T12:56:54;102220.19;;;10.91;38.70
71964;BME280;59834;52.124;5.422;2023-04-05T12:59:22;102223.25;;;10.80;38.93
71964;BME280;59834;52.124;5.422;2023-04-05T13:01:49;102212.31;;;10.70;38.83
71964;BME280;59834;52.124;5.422;2023-04-05T13:04:16;102200.13;;;10.69;38.90
71964;BME280;59834;52.124;5.422;2023-04-05T13:06:44;102207.81;;;10.74;38.90
71964;BME280;59834;52.124;5.422;2023-04-05T13:09:13;102205.09;;;10.75;39.80
71964;BME280;59834;52.124;5.422;2023-04-05T13:11:40;102196.06;;;11.03;38.29
71964;BME280;59834;52.124;5.422;2023-04-05T13:14:07;102190.38;;;10.93;38.61
71964;BME280;59834;52.124;5.422;2023-04-05T13:16:34;102193.63;;;11.19;38.58
71964;BME280;59834;52.124;5.422;2023-04-05T13:19:01;102190.25;;;11.36;38.75
71964;BME280;59834;52.124;5.422;2023-04-05T13:21:28;102194.50;;;11.38;38.05
71964;BME280;59834;52.124;5.422;2023-04-05T13:23:54;102189.22;;;11.19;37.95
71964;BME280;59834;52.124;5.422;2023-04-05T13:26:21;102191.22;;;11.14;37.97
71964;BME280;59834;52.124;5.422;2023-04-05T13:28:49;102184.41;;;11.10;38.50
71964;BME280;59834;52.124;5.422;2023-04-05T13:31:16;102181.72;;;11.12;38.88
71964;BME280;59834;52.124;5.422;2023-04-05T13:33:42;102182.41;;;11.15;38.49
71964;BME280;59834;52.124;5.422;2023-04-05T13:36:09;102170.38;;;11.11;38.48